Tinker Air Force Base
KTIK : now visible

Airfield :











YOU CAN JOIN US ON...

 
LOGIN :

Register | Disclaimer

   EN    FR    IT 

 









Legend :    VFR   Marginal VFR   IFR   Intensive IFR   Very Intensive IFR
Visi :
Ceiling :
>= 8 km
>= 3000ft
5 to 8 km
1000 to 3000 ft
1500m to 5 km
500 to 1000 ft
800 to 1500m
200 to 500 ft
< 800m
< 200 ft
Symbols :   Thunderstorms  Fog  Heavy snow  Heavy precipitations  Wind > 20 kt






- Airport Elevation : 1291 ft


KTIK - Tinker Air Force Base

CURRENT METAR :
  • 291256Z AUTO 00000KT 10SM CLR 21/16 A3020 RMK AO2 SLP222 T02090161

EXPIRED METARs :
  • 291156Z AUTO 00000KT 10SM CLR 19/15 A3019 RMK AO2 SLP219 T01900153 10206 20174 53008
  • 291056Z AUTO 17004KT 10SM CLR 18/15 A3018 RMK AO2 SLP215 T01820153

TAF TAF KTIK
Valid from the 29 at 09:00 until the 30 at 15:00 UTC


290900Z 2909/3015 VRB06KT 9999 SKC QNH3011INS
BECMG 2918/2919 15009KT 9999 SKC QNH3008INS TX33/2922Z TN17/2912Z
KZFW FIR / North America



MET'MAP, your aeronautical weather chart ! - Copyright ORBIFLY December 2007 - Disclaimer

ORBIFLY MET'MAP TEAM :

Programming & Development : Alexandra Zaïnal
Original concept : Baudouin d'Aumeries
Technical & hardware support : Manuel Goepfert
Assistance : Marc-Olivier Méhu




SOURCES & CREDITS :

   NOAA       Earth
Advisory